sensor_id;sensor_type;location;lat;lon;timestamp;temperature;humidity
78536;SHT31;67829;51.968;5.684;2023-10-08T00:00:46;20.6;68.5
78536;SHT31;67829;51.968;5.684;2023-10-08T00:03:16;20.6;68.6
78536;SHT31;67829;51.968;5.684;2023-10-08T00:05:47;20.6;68.6
78536;SHT31;67829;51.968;5.684;2023-10-08T00:08:19;20.6;68.7
78536;SHT31;67829;51.968;5.684;2023-10-08T00:10:47;20.6;68.9
78536;SHT31;67829;51.968;5.684;2023-10-08T00:13:17;20.6;68.9
78536;SHT31;67829;51.968;5.684;2023-10-08T00:15:46;20.6;68.9
78536;SHT31;67829;51.968;5.684;2023-10-08T00:18:19;20.5;69.0
78536;SHT31;67829;51.968;5.684;2023-10-08T00:20:49;20.5;69.2
78536;SHT31;67829;51.968;5.684;2023-10-08T00:23:21;20.5;69.3
78536;SHT31;67829;51.968;5.684;2023-10-08T00:25:52;20.5;69.3
78536;SHT31;67829;51.968;5.684;2023-10-08T00:28:21;20.5;69.5
78536;SHT31;67829;51.968;5.684;2023-10-08T00:30:50;20.5;69.5
78536;SHT31;67829;51.968;5.684;2023-10-08T00:33:20;20.5;69.5
78536;SHT31;67829;51.968;5.684;2023-10-08T00:35:48;20.5;69.6
78536;SHT31;67829;51.968;5.684;2023-10-08T00:38:17;20.5;69.7
78536;SHT31;67829;51.968;5.684;2023-10-08T00:40:47;20.5;69.8
78536;SHT31;67829;51.968;5.684;2023-10-08T00:43:31;20.5;69.7
78536;SHT31;67829;51.968;5.684;2023-10-08T00:46:01;20.5;69.8
78536;SHT31;67829;51.968;5.684;2023-10-08T00:48:35;20.5;69.9
78536;SHT31;67829;51.968;5.684;2023-10-08T00:51:04;20.5;69.9
78536;SHT31;67829;51.968;5.684;2023-10-08T00:53:52;20.5;69.9
78536;SHT31;67829;51.968;5.684;2023-10-08T00:56:24;20.5;70.0
78536;SHT31;67829;51.968;5.684;2023-10-08T00:58:57;20.5;70.1
78536;SHT31;67829;51.968;5.684;2023-10-08T01:01:27;20.5;70.1
78536;SHT31;67829;51.968;5.684;2023-10-08T01:03:58;20.5;70.2
78536;SHT31;67829;51.968;5.684;2023-10-08T01:06:29;20.5;70.2
78536;SHT31;67829;51.968;5.684;2023-10-08T01:08:58;20.5;70.2
78536;SHT31;67829;51.968;5.684;2023-10-08T01:11:34;20.5;70.2
78536;SHT31;67829;51.968;5.684;2023-10-08T01:14:08;20.4;70.4
78536;SHT31;67829;51.968;5.684;2023-10-08T01:16:37;20.4;70.3
78536;SHT31;67829;51.968;5.684;2023-10-08T01:19:08;20.4;70.3
78536;SHT31;67829;51.968;5.684;2023-10-08T01:21:40;20.4;70.4
78536;SHT31;67829;51.968;5.684;2023-10-08T01:24:08;20.4;70.4
78536;SHT31;67829;51.968;5.684;2023-10-08T01:26:43;20.4;70.5
78536;SHT31;67829;51.968;5.684;2023-10-08T01:29:12;20.4;70.4
78536;SHT31;67829;51.968;5.684;2023-10-08T01:31:48;20.4;70.5
78536;SHT31;67829;51.968;5.684;2023-10-08T01:34:19;20.4;70.6
78536;SHT31;67829;51.968;5.684;2023-10-08T01:36:53;20.4;70.7
78536;SHT31;67829;51.968;5.684;2023-10-08T01:39:21;20.4;70.6
78536;SHT31;67829;51.968;5.684;2023-10-08T01:41:49;20.4;70.7
78536;SHT31;67829;51.968;5.684;2023-10-08T01:44:18;20.4;70.7
78536;SHT31;67829;51.968;5.684;2023-10-08T01:46:47;20.4;70.6
78536;SHT31;67829;51.968;5.684;2023-10-08T01:49:16;20.4;70.6
78536;SHT31;67829;51.968;5.684;2023-10-08T01:51:48;20.4;70.6
78536;SHT31;67829;51.968;5.684;2023-10-08T01:54:17;20.4;70.6
78536;SHT31;67829;51.968;5.684;2023-10-08T01:56:47;20.4;70.6
78536;SHT31;67829;51.968;5.684;2023-10-08T01:59:16;20.4;70.6
78536;SHT31;67829;51.968;5.684;2023-10-08T02:01:47;20.4;70.6
78536;SHT31;67829;51.968;5.684;2023-10-08T02:04:16;20.4;70.6
78536;SHT31;67829;51.968;5.684;2023-10-08T02:06:46;20.4;70.7
78536;SHT31;67829;51.968;5.684;2023-10-08T02:09:14;20.4;70.7
78536;SHT31;67829;51.968;5.684;2023-10-08T02:11:47;20.3;70.7
78536;SHT31;67829;51.968;5.684;2023-10-08T02:14:17;20.3;70.7
78536;SHT31;67829;51.968;5.684;2023-10-08T02:16:47;20.3;70.7
78536;SHT31;67829;51.968;5.684;2023-10-08T02:19:16;20.3;70.6
78536;SHT31;67829;51.968;5.684;2023-10-08T02:21:51;20.3;70.8
78536;SHT31;67829;51.968;5.684;2023-10-08T02:24:21;20.3;70.8
78536;SHT31;67829;51.968;5.684;2023-10-08T02:26:52;20.3;70.7
78536;SHT31;67829;51.968;5.684;2023-10-08T02:29:25;20.3;70.7
78536;SHT31;67829;51.968;5.684;2023-10-08T02:31:53;20.3;70.8
78536;SHT31;67829;51.968;5.684;2023-10-08T02:34:22;20.3;70.8
78536;SHT31;67829;51.968;5.684;2023-10-08T02:36:51;20.3;70.7
78536;SHT31;67829;51.968;5.684;2023-10-08T02:39:19;20.3;70.7
78536;SHT31;67829;51.968;5.684;2023-10-08T02:41:52;20.3;70.6
78536;SHT31;67829;51.968;5.684;2023-10-08T02:44:23;20.3;70.6
78536;SHT31;67829;51.968;5.684;2023-10-08T02:46:52;20.3;70.7
78536;SHT31;67829;51.968;5.684;2023-10-08T02:49:21;20.3;70.6
78536;SHT31;67829;51.968;5.684;2023-10-08T02:51:52;20.3;70.6
78536;SHT31;67829;51.968;5.684;2023-10-08T02:54:22;20.3;70.7
78536;SHT31;67829;51.968;5.684;2023-10-08T02:56:56;20.3;70.7
78536;SHT31;67829;51.968;5.684;2023-10-08T02:59:30;20.3;70.7
78536;SHT31;67829;51.968;5.684;2023-10-08T03:02:06;20.3;70.8
78536;SHT31;67829;51.968;5.684;2023-10-08T03:04:39;20.2;70.8
78536;SHT31;67829;51.968;5.684;2023-10-08T03:07:08;20.2;70.8
78536;SHT31;67829;51.968;5.684;2023-10-08T03:09:42;20.2;70.8
78536;SHT31;67829;51.968;5.684;2023-10-08T03:12:10;20.2;70.7
78536;SHT31;67829;51.968;5.684;2023-10-08T03:14:41;20.2;70.8
78536;SHT31;67829;51.968;5.684;2023-10-08T03:17:15;20.2;70.8
78536;SHT31;67829;51.968;5.684;2023-10-08T03:19:46;20.2;70.6
78536;SHT31;67829;51.968;5.684;2023-10-08T03:22:15;20.2;70.7
78536;SHT31;67829;51.968;5.684;2023-10-08T03:24:47;20.2;70.7
78536;SHT31;67829;51.968;5.684;2023-10-08T03:27:16;20.2;70.8
78536;SHT31;67829;51.968;5.684;2023-10-08T03:29:48;20.2;70.9
78536;SHT31;67829;51.968;5.684;2023-10-08T03:32:21;20.2;70.9
78536;SHT31;67829;51.968;5.684;2023-10-08T03:34:53;20.2;70.8
78536;SHT31;67829;51.968;5.684;2023-10-08T03:37:22;20.2;70.8
78536;SHT31;67829;51.968;5.684;2023-10-08T03:39:56;20.2;70.7
78536;SHT31;67829;51.968;5.684;2023-10-08T03:42:40;20.2;70.7
78536;SHT31;67829;51.968;5.684;2023-10-08T03:45:13;20.2;70.6
78536;SHT31;67829;51.968;5.684;2023-10-08T03:47:48;20.2;70.6
78536;SHT31;67829;51.968;5.684;2023-10-08T03:50:22;20.2;70.4
78536;SHT31;67829;51.968;5.684;2023-10-08T03:52:55;20.2;70.4
78536;SHT31;67829;51.968;5.684;2023-10-08T03:55:24;20.2;70.6
78536;SHT31;67829;51.968;5.684;2023-10-08T03:57:59;20.1;70.6
78536;SHT31;67829;51.968;5.684;2023-10-08T04:00:30;20.1;70.8
78536;SHT31;67829;51.968;5.684;2023-10-08T04:03:05;20.1;71.0
78536;SHT31;67829;51.968;5.684;2023-10-08T04:05:38;20.1;71.1
78536;SHT31;67829;51.968;5.684;2023-10-08T04:08:18;20.1;71.2
78536;SHT31;67829;51.968;5.684;2023-10-08T04:10:51;20.1;71.3
78536;SHT31;67829;51.968;5.684;2023-10-08T04:13:41;20.1;71.2
78536;SHT31;67829;51.968;5.684;2023-10-08T04:16:14;20.1;71.3
78536;SHT31;67829;51.968;5.684;2023-10-08T04:18:45;20.1;71.3
78536;SHT31;67829;51.968;5.684;2023-10-08T04:21:16;20.1;71.4
78536;SHT31;67829;51.968;5.684;2023-10-08T04:23:47;20.1;71.4
78536;SHT31;67829;51.968;5.684;2023-10-08T04:26:20;20.1;71.3
78536;SHT31;67829;51.968;5.684;2023-10-08T04:28:50;20.1;71.2
78536;SHT31;67829;51.968;5.684;2023-10-08T04:31:21;20.1;71.1
78536;SHT31;67829;51.968;5.684;2023-10-08T04:33:55;20.1;71.1
78536;SHT31;67829;51.968;5.684;2023-10-08T04:36:28;20.1;71.1
78536;SHT31;67829;51.968;5.684;2023-10-08T04:38:58;20.1;71.2
78536;SHT31;67829;51.968;5.684;2023-10-08T04:41:34;20.1;71.2
78536;SHT31;67829;51.968;5.684;2023-10-08T04:44:09;20.1;71.4
78536;SHT31;67829;51.968;5.684;2023-10-08T04:46:40;20.1;71.4
78536;SHT31;67829;51.968;5.684;2023-10-08T04:49:19;20.1;71.4
78536;SHT31;67829;51.968;5.684;2023-10-08T04:52:11;20.1;71.3
78536;SHT31;67829;51.968;5.684;2023-10-08T04:54:42;20.1;71.3
78536;SHT31;67829;51.968;5.684;2023-10-08T04:57:17;20.1;71.2
78536;SHT31;67829;51.968;5.684;2023-10-08T04:59:49;20.1;71.2
78536;SHT31;67829;51.968;5.684;2023-10-08T05:02:18;20.1;71.2
78536;SHT31;67829;51.968;5.684;2023-10-08T05:04:52;20.1;71.3
78536;SHT31;67829;51.968;5.684;2023-10-08T05:07:29;20.1;71.3
78536;SHT31;67829;51.968;5.684;2023-10-08T05:10:34;20.1;70.9
78536;SHT31;67829;51.968;5.684;2023-10-08T05:13:19;20.1;69.9
78536;SHT31;67829;51.968;5.684;2023-10-08T05:15:52;20.1;69.2
78536;SHT31;67829;51.968;5.684;2023-10-08T05:18:35;20.0;68.9
78536;SHT31;67829;51.968;5.684;2023-10-08T05:21:27;20.0;68.3
78536;SHT31;67829;51.968;5.684;2023-10-08T05:24:00;20.0;68.1
78536;SHT31;67829;51.968;5.684;2023-10-08T05:26:41;19.9;67.4
78536;SHT31;67829;51.968;5.684;2023-10-08T05:29:15;19.9;67.7
78536;SHT31;67829;51.968;5.684;2023-10-08T05:31:59;19.8;67.3
78536;SHT31;67829;51.968;5.684;2023-10-08T05:34:51;19.7;67.3
78536;SHT31;67829;51.968;5.684;2023-10-08T05:37:26;19.7;67.4
78536;SHT31;67829;51.968;5.684;2023-10-08T05:40:06;19.6;67.2
78536;SHT31;67829;51.968;5.684;2023-10-08T05:42:54;19.5;67.4
78536;SHT31;67829;51.968;5.684;2023-10-08T05:45:27;19.5;67.3
78536;SHT31;67829;51.968;5.684;2023-10-08T05:48:00;19.4;67.2
78536;SHT31;67829;51.968;5.684;2023-10-08T05:50:39;19.4;66.6
78536;SHT31;67829;51.968;5.684;2023-10-08T05:53:09;19.3;66.1
78536;SHT31;67829;51.968;5.684;2023-10-08T05:55:52;19.2;66.2
78536;SHT31;67829;51.968;5.684;2023-10-08T05:58:26;19.1;66.4
78536;SHT31;67829;51.968;5.684;2023-10-08T06:00:59;19.1;66.9
78536;SHT31;67829;51.968;5.684;2023-10-08T06:03:35;19.0;66.9
78536;SHT31;67829;51.968;5.684;2023-10-08T06:06:09;18.9;67.0
78536;SHT31;67829;51.968;5.684;2023-10-08T06:08:59;18.9;67.1
78536;SHT31;67829;51.968;5.684;2023-10-08T06:11:39;18.8;67.0
78536;SHT31;67829;51.968;5.684;2023-10-08T06:14:17;18.8;67.2
78536;SHT31;67829;51.968;5.684;2023-10-08T06:16:53;18.7;67.4
78536;SHT31;67829;51.968;5.684;2023-10-08T06:19:26;18.7;67.4
78536;SHT31;67829;51.968;5.684;2023-10-08T06:21:55;18.6;67.1
78536;SHT31;67829;51.968;5.684;2023-10-08T06:24:23;18.6;67.3
78536;SHT31;67829;51.968;5.684;2023-10-08T06:26:54;18.6;67.2
78536;SHT31;67829;51.968;5.684;2023-10-08T06:29:22;18.5;67.2
78536;SHT31;67829;51.968;5.684;2023-10-08T06:31:57;18.5;66.6
78536;SHT31;67829;51.968;5.684;2023-10-08T06:34:29;18.4;66.6
78536;SHT31;67829;51.968;5.684;2023-10-08T06:36:59;18.4;66.4
78536;SHT31;67829;51.968;5.684;2023-10-08T06:39:28;18.3;66.7
78536;SHT31;67829;51.968;5.684;2023-10-08T06:42:06;18.3;66.8
78536;SHT31;67829;51.968;5.684;2023-10-08T06:44:35;18.2;66.8
78536;SHT31;67829;51.968;5.684;2023-10-08T06:47:05;18.2;66.7
78536;SHT31;67829;51.968;5.684;2023-10-08T06:49:36;18.2;66.0
78536;SHT31;67829;51.968;5.684;2023-10-08T06:52:05;18.1;66.2
78536;SHT31;67829;51.968;5.684;2023-10-08T06:54:37;18.1;66.1
78536;SHT31;67829;51.968;5.684;2023-10-08T06:57:06;18.0;66.0
78536;SHT31;67829;51.968;5.684;2023-10-08T06:59:39;18.0;66.3
78536;SHT31;67829;51.968;5.684;2023-10-08T07:02:09;18.0;66.3
78536;SHT31;67829;51.968;5.684;2023-10-08T07:04:43;17.9;66.2
78536;SHT31;67829;51.968;5.684;2023-10-08T07:07:14;17.9;66.4
78536;SHT31;67829;51.968;5.684;2023-10-08T07:09:45;17.9;66.8
78536;SHT31;67829;51.968;5.684;2023-10-08T07:12:14;17.9;66.7
78536;SHT31;67829;51.968;5.684;2023-10-08T07:14:43;17.9;66.7
78536;SHT31;67829;51.968;5.684;2023-10-08T07:17:13;17.9;66.6
78536;SHT31;67829;51.968;5.684;2023-10-08T07:19:46;17.9;66.6
78536;SHT31;67829;51.968;5.684;2023-10-08T07:22:17;17.9;66.7
78536;SHT31;67829;51.968;5.684;2023-10-08T07:24:56;17.8;66.8
78536;SHT31;67829;51.968;5.684;2023-10-08T07:27:25;17.8;66.9
78536;SHT31;67829;51.968;5.684;2023-10-08T07:29:58;17.8;66.7
78536;SHT31;67829;51.968;5.684;2023-10-08T07:32:32;17.8;66.6
78536;SHT31;67829;51.968;5.684;2023-10-08T07:35:01;17.8;66.9
78536;SHT31;67829;51.968;5.684;2023-10-08T07:37:37;17.8;67.1
78536;SHT31;67829;51.968;5.684;2023-10-08T07:40:06;17.8;67.3
78536;SHT31;67829;51.968;5.684;2023-10-08T07:42:38;17.9;66.8
78536;SHT31;67829;51.968;5.684;2023-10-08T07:45:07;17.9;66.5
78536;SHT31;67829;51.968;5.684;2023-10-08T07:47:36;17.9;66.1
78536;SHT31;67829;51.968;5.684;2023-10-08T07:50:05;17.9;66.4
78536;SHT31;67829;51.968;5.684;2023-10-08T07:52:38;17.9;66.9
78536;SHT31;67829;51.968;5.684;2023-10-08T07:55:09;17.9;66.1
78536;SHT31;67829;51.968;5.684;2023-10-08T07:57:43;17.9;66.3
78536;SHT31;67829;51.968;5.684;2023-10-08T08:00:12;18.0;66.5
78536;SHT31;67829;51.968;5.684;2023-10-08T08:02:49;18.0;65.6
78536;SHT31;67829;51.968;5.684;2023-10-08T08:05:18;18.0;65.5
78536;SHT31;67829;51.968;5.684;2023-10-08T08:07:47;18.0;65.6
78536;SHT31;67829;51.968;5.684;2023-10-08T08:10:18;18.0;65.8
78536;SHT31;67829;51.968;5.684;2023-10-08T08:12:49;18.0;65.0
78536;SHT31;67829;51.968;5.684;2023-10-08T08:15:23;18.1;65.3
78536;SHT31;67829;51.968;5.684;2023-10-08T08:17:53;18.1;65.2
78536;SHT31;67829;51.968;5.684;2023-10-08T08:20:22;18.1;65.2
78536;SHT31;67829;51.968;5.684;2023-10-08T08:22:55;18.1;65.5
78536;SHT31;67829;51.968;5.684;2023-10-08T08:25:29;18.1;65.4
78536;SHT31;67829;51.968;5.684;2023-10-08T08:28:09;18.2;65.1
78536;SHT31;67829;51.968;5.684;2023-10-08T08:30:43;18.2;65.4
78536;SHT31;67829;51.968;5.684;2023-10-08T08:33:13;18.2;65.3
78536;SHT31;67829;51.968;5.684;2023-10-08T08:35:46;18.3;65.3
78536;SHT31;67829;51.968;5.684;2023-10-08T08:38:15;18.3;65.2
78536;SHT31;67829;51.968;5.684;2023-10-08T08:40:43;18.3;65.2
78536;SHT31;67829;51.968;5.684;2023-10-08T08:43:12;18.3;65.4
78536;SHT31;67829;51.968;5.684;2023-10-08T08:45:43;18.3;65.1
78536;SHT31;67829;51.968;5.684;2023-10-08T08:48:18;18.3;65.3
78536;SHT31;67829;51.968;5.684;2023-10-08T08:50:51;18.3;65.1
78536;SHT31;67829;51.968;5.684;2023-10-08T08:53:19;18.4;65.3
78536;SHT31;67829;51.968;5.684;2023-10-08T08:55:49;18.4;65.5
78536;SHT31;67829;51.968;5.684;2023-10-08T08:58:19;18.4;65.4
78536;SHT31;67829;51.968;5.684;2023-10-08T09:00:52;18.4;66.0
78536;SHT31;67829;51.968;5.684;2023-10-08T09:03:22;18.4;66.0
78536;SHT31;67829;51.968;5.684;2023-10-08T09:05:56;18.4;66.4
78536;SHT31;67829;51.968;5.684;2023-10-08T09:08:27;18.4;66.3
78536;SHT31;67829;51.968;5.684;2023-10-08T09:10:59;18.4;66.6
78536;SHT31;67829;51.968;5.684;2023-10-08T09:13:31;18.4;66.6
78536;SHT31;67829;51.968;5.684;2023-10-08T09:16:07;18.4;66.4
78536;SHT31;67829;51.968;5.684;2023-10-08T09:18:36;18.4;66.4
78536;SHT31;67829;51.968;5.684;2023-10-08T09:21:10;18.4;66.8
78536;SHT31;67829;51.968;5.684;2023-10-08T09:23:43;18.4;67.0
78536;SHT31;67829;51.968;5.684;2023-10-08T09:26:16;18.4;66.6
78536;SHT31;67829;51.968;5.684;2023-10-08T09:28:47;18.3;66.7
78536;SHT31;67829;51.968;5.684;2023-10-08T09:31:17;18.3;66.7
78536;SHT31;67829;51.968;5.684;2023-10-08T09:33:55;18.3;66.7
78536;SHT31;67829;51.968;5.684;2023-10-08T09:36:23;18.3;66.6
78536;SHT31;67829;51.968;5.684;2023-10-08T09:38:58;18.3;66.6
78536;SHT31;67829;51.968;5.684;2023-10-08T09:41:29;18.3;66.5
78536;SHT31;67829;51.968;5.684;2023-10-08T09:43:59;18.3;65.8
78536;SHT31;67829;51.968;5.684;2023-10-08T09:46:32;18.3;65.6
78536;SHT31;67829;51.968;5.684;2023-10-08T09:49:03;18.3;64.8
78536;SHT31;67829;51.968;5.684;2023-10-08T09:51:39;18.3;64.6
78536;SHT31;67829;51.968;5.684;2023-10-08T09:54:11;18.4;64.4
78536;SHT31;67829;51.968;5.684;2023-10-08T09:56:44;18.4;63.8
78536;SHT31;67829;51.968;5.684;2023-10-08T09:59:13;18.4;64.0
78536;SHT31;67829;51.968;5.684;2023-10-08T10:01:43;18.4;64.2
78536;SHT31;67829;51.968;5.684;2023-10-08T10:04:24;18.4;64.1
78536;SHT31;67829;51.968;5.684;2023-10-08T10:06:55;18.5;64.4
78536;SHT31;67829;51.968;5.684;2023-10-08T10:09:26;18.5;63.8
78536;SHT31;67829;51.968;5.684;2023-10-08T10:11:55;18.5;64.0
78536;SHT31;67829;51.968;5.684;2023-10-08T10:14:24;18.5;64.4
78536;SHT31;67829;51.968;5.684;2023-10-08T10:17:12;18.6;64.7
78536;SHT31;67829;51.968;5.684;2023-10-08T10:19:42;18.6;63.5
78536;SHT31;67829;51.968;5.684;2023-10-08T10:22:31;18.6;63.8
78536;SHT31;67829;51.968;5.684;2023-10-08T10:25:02;18.7;63.9
78536;SHT31;67829;51.968;5.684;2023-10-08T10:27:36;18.7;63.2
78536;SHT31;67829;51.968;5.684;2023-10-08T10:30:06;18.8;62.1
78536;SHT31;67829;51.968;5.684;2023-10-08T10:32:37;18.8;61.4
78536;SHT31;67829;51.968;5.684;2023-10-08T10:35:06;18.8;61.3
78536;SHT31;67829;51.968;5.684;2023-10-08T10:37:38;18.8;61.9
78536;SHT31;67829;51.968;5.684;2023-10-08T10:40:19;18.8;61.8
78536;SHT31;67829;51.968;5.684;2023-10-08T10:42:55;18.9;61.5
78536;SHT31;67829;51.968;5.684;2023-10-08T10:45:25;18.9;61.2
78536;SHT31;67829;51.968;5.684;2023-10-08T10:48:09;18.9;61.9
78536;SHT31;67829;51.968;5.684;2023-10-08T10:50:48;18.9;61.9
78536;SHT31;67829;51.968;5.684;2023-10-08T10:53:22;19.0;62.1
78536;SHT31;67829;51.968;5.684;2023-10-08T10:55:53;19.0;61.9
78536;SHT31;67829;51.968;5.684;2023-10-08T10:58:31;19.0;60.9
78536;SHT31;67829;51.968;5.684;2023-10-08T11:01:05;19.0;61.2
78536;SHT31;67829;51.968;5.684;2023-10-08T11:03:40;19.1;61.5
78536;SHT31;67829;51.968;5.684;2023-10-08T11:06:10;19.1;61.1
78536;SHT31;67829;51.968;5.684;2023-10-08T11:08:42;19.1;60.9
78536;SHT31;67829;51.968;5.684;2023-10-08T11:11:12;19.1;61.8
78536;SHT31;67829;51.968;5.684;2023-10-08T11:13:44;19.2;61.3
78536;SHT31;67829;51.968;5.684;2023-10-08T11:16:17;19.2;60.9
78536;SHT31;67829;51.968;5.684;2023-10-08T11:18:48;19.2;60.9
78536;SHT31;67829;51.968;5.684;2023-10-08T11:21:24;19.3;61.0
78536;SHT31;67829;51.968;5.684;2023-10-08T11:23:57;19.3;60.8
78536;SHT31;67829;51.968;5.684;2023-10-08T11:26:36;19.3;60.3
78536;SHT31;67829;51.968;5.684;2023-10-08T11:29:11;19.3;61.0
78536;SHT31;67829;51.968;5.684;2023-10-08T11:31:49;19.3;60.9
78536;SHT31;67829;51.968;5.684;2023-10-08T11:34:18;19.3;61.0
78536;SHT31;67829;51.968;5.684;2023-10-08T11:36:52;19.4;61.4
78536;SHT31;67829;51.968;5.684;2023-10-08T11:39:22;19.4;61.5
78536;SHT31;67829;51.968;5.684;2023-10-08T11:42:00;19.4;61.2
78536;SHT31;67829;51.968;5.684;2023-10-08T11:44:33;19.4;60.4
78536;SHT31;67829;51.968;5.684;2023-10-08T11:47:03;19.4;60.6
78536;SHT31;67829;51.968;5.684;2023-10-08T11:49:38;19.4;61.0
78536;SHT31;67829;51.968;5.684;2023-10-08T11:52:11;19.4;60.3
78536;SHT31;67829;51.968;5.684;2023-10-08T11:54:41;19.5;60.3
78536;SHT31;67829;51.968;5.684;2023-10-08T11:57:11;19.5;60.5
78536;SHT31;67829;51.968;5.684;2023-10-08T11:59:40;19.5;60.1
78536;SHT31;67829;51.968;5.684;2023-10-08T12:02:08;19.5;60.5
78536;SHT31;67829;51.968;5.684;2023-10-08T12:04:42;19.5;60.1
78536;SHT31;67829;51.968;5.684;2023-10-08T12:07:12;19.5;59.8
78536;SHT31;67829;51.968;5.684;2023-10-08T12:09:43;19.5;60.2
78536;SHT31;67829;51.968;5.684;2023-10-08T12:12:14;19.5;60.6
78536;SHT31;67829;51.968;5.684;2023-10-08T12:14:48;19.5;60.4
78536;SHT31;67829;51.968;5.684;2023-10-08T12:17:18;19.5;60.8
78536;SHT31;67829;51.968;5.684;2023-10-08T12:19:51;19.5;60.8
78536;SHT31;67829;51.968;5.684;2023-10-08T12:22:22;19.5;61.2
78536;SHT31;67829;51.968;5.684;2023-10-08T12:24:52;19.5;60.4
78536;SHT31;67829;51.968;5.684;2023-10-08T12:27:21;19.6;60.8
78536;SHT31;67829;51.968;5.684;2023-10-08T12:29:51;19.6;61.0
78536;SHT31;67829;51.968;5.684;2023-10-08T12:32:19;19.6;61.0
78536;SHT31;67829;51.968;5.684;2023-10-08T12:34:52;19.6;61.7
78536;SHT31;67829;51.968;5.684;2023-10-08T12:37:22;19.7;62.3
78536;SHT31;67829;51.968;5.684;2023-10-08T12:39:50;19.8;61.4
78536;SHT31;67829;51.968;5.684;2023-10-08T12:42:26;19.8;61.1
78536;SHT31;67829;51.968;5.684;2023-10-08T12:44:54;19.9;60.6
78536;SHT31;67829;51.968;5.684;2023-10-08T12:47:23;19.9;60.1
78536;SHT31;67829;51.968;5.684;2023-10-08T12:49:55;19.9;61.0
78536;SHT31;67829;51.968;5.684;2023-10-08T12:52:23;20.0;61.0
78536;SHT31;67829;51.968;5.684;2023-10-08T12:54:54;20.0;60.7
78536;SHT31;67829;51.968;5.684;2023-10-08T12:57:29;20.0;60.3
78536;SHT31;67829;51.968;5.684;2023-10-08T13:00:00;20.0;60.6
78536;SHT31;67829;51.968;5.684;2023-10-08T13:02:30;20.1;60.7
78536;SHT31;67829;51.968;5.684;2023-10-08T13:05:01;20.1;61.0
78536;SHT31;67829;51.968;5.684;2023-10-08T13:07:33;20.1;61.3
78536;SHT31;67829;51.968;5.684;2023-10-08T13:10:07;20.1;61.3
78536;SHT31;67829;51.968;5.684;2023-10-08T13:12:37;20.1;61.4
78536;SHT31;67829;51.968;5.684;2023-10-08T13:15:07;20.1;61.3
78536;SHT31;67829;51.968;5.684;2023-10-08T13:17:36;20.1;61.5
78536;SHT31;67829;51.968;5.684;2023-10-08T13:20:09;20.1;62.0
78536;SHT31;67829;51.968;5.684;2023-10-08T13:22:38;20.1;62.2
78536;SHT31;67829;51.968;5.684;2023-10-08T13:25:07;20.1;62.7
78536;SHT31;67829;51.968;5.684;2023-10-08T13:27:38;20.1;62.8
78536;SHT31;67829;51.968;5.684;2023-10-08T13:30:08;20.1;62.9
78536;SHT31;67829;51.968;5.684;2023-10-08T13:32:37;20.1;62.8
78536;SHT31;67829;51.968;5.684;2023-10-08T13:35:06;20.1;62.5
78536;SHT31;67829;51.968;5.684;2023-10-08T13:37:35;20.1;63.2
78536;SHT31;67829;51.968;5.684;2023-10-08T13:40:04;20.1;62.8
78536;SHT31;67829;51.968;5.684;2023-10-08T13:42:32;20.2;63.0
78536;SHT31;67829;51.968;5.684;2023-10-08T13:45:03;20.2;63.0
78536;SHT31;67829;51.968;5.684;2023-10-08T13:47:35;20.2;63.4
78536;SHT31;67829;51.968;5.684;2023-10-08T13:50:07;20.2;63.2
78536;SHT31;67829;51.968;5.684;2023-10-08T13:52:37;20.2;62.6
78536;SHT31;67829;51.968;5.684;2023-10-08T13:55:06;20.3;62.9
78536;SHT31;67829;51.968;5.684;2023-10-08T13:57:40;20.3;62.3
78536;SHT31;67829;51.968;5.684;2023-10-08T14:00:11;20.3;62.2
78536;SHT31;67829;51.968;5.684;2023-10-08T14:02:42;20.3;62.7
78536;SHT31;67829;51.968;5.684;2023-10-08T14:05:11;20.3;62.7
78536;SHT31;67829;51.968;5.684;2023-10-08T14:07:41;20.3;62.3
78536;SHT31;67829;51.968;5.684;2023-10-08T14:10:12;20.3;62.3
78536;SHT31;67829;51.968;5.684;2023-10-08T14:12:45;20.3;62.5
78536;SHT31;67829;51.968;5.684;2023-10-08T14:15:15;20.3;62.7
78536;SHT31;67829;51.968;5.684;2023-10-08T14:17:46;20.3;62.7
78536;SHT31;67829;51.968;5.684;2023-10-08T14:20:20;20.3;62.6
78536;SHT31;67829;51.968;5.684;2023-10-08T14:22:49;20.3;62.5
78536;SHT31;67829;51.968;5.684;2023-10-08T14:25:27;20.3;62.9
78536;SHT31;67829;51.968;5.684;2023-10-08T14:28:00;20.3;63.0
78536;SHT31;67829;51.968;5.684;2023-10-08T14:30:34;20.3;63.5
78536;SHT31;67829;51.968;5.684;2023-10-08T14:33:07;20.3;63.7
78536;SHT31;67829;51.968;5.684;2023-10-08T14:35:39;20.3;63.6
78536;SHT31;67829;51.968;5.684;2023-10-08T14:38:24;20.3;62.9
78536;SHT31;67829;51.968;5.684;2023-10-08T14:41:09;20.3;63.0
78536;SHT31;67829;51.968;5.684;2023-10-08T14:43:54;20.3;63.0
78536;SHT31;67829;51.968;5.684;2023-10-08T14:46:22;20.3;63.4
78536;SHT31;67829;51.968;5.684;2023-10-08T14:48:51;20.2;63.6
78536;SHT31;67829;51.968;5.684;2023-10-08T14:51:21;20.2;63.1
78536;SHT31;67829;51.968;5.684;2023-10-08T14:53:50;20.2;63.2
78536;SHT31;67829;51.968;5.684;2023-10-08T14:56:19;20.2;62.9
78536;SHT31;67829;51.968;5.684;2023-10-08T14:58:49;20.2;63.0
78536;SHT31;67829;51.968;5.684;2023-10-08T15:01:18;20.2;63.1
78536;SHT31;67829;51.968;5.684;2023-10-08T15:03:46;20.2;63.3
78536;SHT31;67829;51.968;5.684;2023-10-08T15:06:15;20.2;63.2
78536;SHT31;67829;51.968;5.684;2023-10-08T15:08:43;20.1;63.5
78536;SHT31;67829;51.968;5.684;2023-10-08T15:11:12;20.1;63.5
78536;SHT31;67829;51.968;5.684;2023-10-08T15:13:43;20.1;63.2
78536;SHT31;67829;51.968;5.684;2023-10-08T15:16:12;20.1;63.5
78536;SHT31;67829;51.968;5.684;2023-10-08T15:18:41;20.1;63.8
78536;SHT31;67829;51.968;5.684;2023-10-08T15:21:10;20.1;64.1
78536;SHT31;67829;51.968;5.684;2023-10-08T15:23:39;20.1;64.6
78536;SHT31;67829;51.968;5.684;2023-10-08T15:26:09;20.1;63.9
78536;SHT31;67829;51.968;5.684;2023-10-08T15:28:39;20.1;64.2
78536;SHT31;67829;51.968;5.684;2023-10-08T15:31:07;20.1;63.9
78536;SHT31;67829;51.968;5.684;2023-10-08T15:33:37;20.1;63.8
78536;SHT31;67829;51.968;5.684;2023-10-08T15:36:08;20.1;63.9
78536;SHT31;67829;51.968;5.684;2023-10-08T15:38:36;20.1;63.6
78536;SHT31;67829;51.968;5.684;2023-10-08T15:41:05;20.1;63.5
78536;SHT31;67829;51.968;5.684;2023-10-08T15:43:33;20.1;63.7
78536;SHT31;67829;51.968;5.684;2023-10-08T15:46:02;20.0;63.3
78536;SHT31;67829;51.968;5.684;2023-10-08T15:48:31;20.0;63.8
78536;SHT31;67829;51.968;5.684;2023-10-08T15:51:00;20.0;63.9
78536;SHT31;67829;51.968;5.684;2023-10-08T15:53:29;20.0;63.7
78536;SHT31;67829;51.968;5.684;2023-10-08T15:55:57;20.0;64.0
78536;SHT31;67829;51.968;5.684;2023-10-08T15:58:26;20.0;63.4
78536;SHT31;67829;51.968;5.684;2023-10-08T16:00:54;19.9;63.6
78536;SHT31;67829;51.968;5.684;2023-10-08T16:03:23;19.9;63.8
78536;SHT31;67829;51.968;5.684;2023-10-08T16:05:51;19.9;63.7
78536;SHT31;67829;51.968;5.684;2023-10-08T16:08:21;19.9;63.7
78536;SHT31;67829;51.968;5.684;2023-10-08T16:10:50;19.9;63.8
78536;SHT31;67829;51.968;5.684;2023-10-08T16:13:18;19.9;63.8
78536;SHT31;67829;51.968;5.684;2023-10-08T16:15:47;19.9;64.0
78536;SHT31;67829;51.968;5.684;2023-10-08T16:18:15;19.8;63.7
78536;SHT31;67829;51.968;5.684;2023-10-08T16:20:44;19.8;63.9
78536;SHT31;67829;51.968;5.684;2023-10-08T16:23:13;19.8;63.8
78536;SHT31;67829;51.968;5.684;2023-10-08T16:25:43;19.8;63.6
78536;SHT31;67829;51.968;5.684;2023-10-08T16:28:17;19.8;63.8
78536;SHT31;67829;51.968;5.684;2023-10-08T16:30:45;19.7;64.0
78536;SHT31;67829;51.968;5.684;2023-10-08T16:33:20;19.7;64.2